createdAt,value
2018-03-28T00:02:34.924Z,43.77
2018-03-28T00:17:35.486Z,32.03
2018-03-28T00:32:37.738Z,30.80
2018-03-28T00:47:35.197Z,32.07
2018-03-28T01:02:34.642Z,34.33
2018-03-28T01:32:35.417Z,32.53
2018-03-28T01:47:34.406Z,31.33
2018-03-28T02:02:34.314Z,30.03
2018-03-28T02:17:34.708Z,31.80
2018-03-28T02:32:36.582Z,33.10
2018-03-28T02:47:34.529Z,43.93
2018-03-28T03:02:34.490Z,33.67
2018-03-28T03:17:36.158Z,34.53
2018-03-28T03:32:34.115Z,29.77
2018-03-28T03:47:34.077Z,37.20
2018-03-28T04:02:34.067Z,41.77
2018-03-28T04:17:34.345Z,38.47
2018-03-28T04:32:34.375Z,31.37
2018-03-28T04:47:34.296Z,32.93
2018-03-28T05:02:36.218Z,35.53
2018-03-28T05:17:34.543Z,34.53
2018-03-28T05:32:35.250Z,34.63
2018-03-28T05:47:35.185Z,36.60
2018-03-28T06:32:34.761Z,26.17
2018-03-28T06:47:35.679Z,24.63
2018-03-28T07:02:36.694Z,24.67
2018-03-28T07:17:34.734Z,22.03
2018-03-28T07:32:36.634Z,23.43
2018-03-28T07:47:36.575Z,19.37
2018-03-28T08:02:35.574Z,17.07
2018-03-28T08:17:34.190Z,17.73
2018-03-28T08:32:35.322Z,21.37
2018-03-28T08:47:36.760Z,19.20
2018-03-28T09:02:36.751Z,18.93
2018-03-28T09:17:37.866Z,17.23
2018-03-28T09:32:34.843Z,15.50
2018-03-28T09:47:33.738Z,14.30
2018-03-28T10:02:40.456Z,20.27
2018-03-28T10:17:34.267Z,17.87
2018-03-28T10:32:37.266Z,15.07
2018-03-28T10:47:35.162Z,12.30
2018-03-28T11:02:35.600Z,13.50
2018-03-28T11:17:34.612Z,15.67
2018-03-28T11:32:34.241Z,15.70
2018-03-28T11:47:34.209Z,15.33
2018-03-28T12:02:34.342Z,15.00
2018-03-28T12:17:36.686Z,16.20
2018-03-28T12:32:33.946Z,16.10
2018-03-28T12:47:35.896Z,14.83
2018-03-28T13:02:34.570Z,15.47
2018-03-28T13:17:35.751Z,15.83
2018-03-28T13:32:34.854Z,14.77
2018-03-28T13:47:35.007Z,15.20
2018-03-28T14:02:36.794Z,14.40
2018-03-28T14:17:35.481Z,12.90
2018-03-28T14:32:34.862Z,12.37
2018-03-28T14:47:36.167Z,16.47
2018-03-28T15:02:34.962Z,15.77
2018-03-28T15:17:36.664Z,17.97
2018-03-28T15:32:34.125Z,16.23
2018-03-28T15:47:35.131Z,15.00
2018-03-28T16:02:36.322Z,16.13
2018-03-28T16:17:34.940Z,23.90
2018-03-28T16:32:40.250Z,23.00
2018-03-28T16:47:34.300Z,33.80
2018-03-28T17:02:34.528Z,29.57
2018-03-28T18:02:38.548Z,26.30
2018-03-28T18:17:51.004Z,29.93
2018-03-28T18:32:35.050Z,43.03
2018-03-28T19:02:39.597Z,36.47
2018-03-28T19:17:34.239Z,37.00
2018-03-28T19:32:40.081Z,41.47
2018-03-28T19:47:35.198Z,34.00
2018-03-28T20:02:37.165Z,38.27
2018-03-28T20:17:34.423Z,48.57
2018-03-28T20:32:34.386Z,51.17
2018-03-28T20:47:34.312Z,38.10
2018-03-28T21:02:34.786Z,30.83
2018-03-28T21:17:33.987Z,29.37
2018-03-28T21:32:35.521Z,27.90
2018-03-28T21:47:34.081Z,32.67
2018-03-28T22:02:33.751Z,32.70
2018-03-28T22:17:33.674Z,19.90
2018-03-28T22:32:33.632Z,20.60
2018-03-28T22:47:35.498Z,35.27
2018-03-28T23:02:33.434Z,23.27
2018-03-28T23:17:34.437Z,24.37
2018-03-28T23:32:36.273Z,21.93
2018-03-28T23:47:36.246Z,31.37
